createdAt,value
2023-02-19T00:00:39.033Z,89.90
2023-02-19T00:03:10.172Z,89.70
2023-02-19T00:05:41.142Z,89.40
2023-02-19T00:08:12.061Z,88.90
2023-02-19T00:10:43.099Z,88.80
2023-02-19T00:13:14.231Z,88.30
2023-02-19T00:15:45.222Z,87.90
2023-02-19T00:18:16.220Z,87.90
2023-02-19T00:20:47.143Z,87.60
2023-02-19T00:23:18.073Z,87.10
2023-02-19T00:25:49.022Z,86.70
2023-02-19T00:28:20.723Z,86.30
2023-02-19T00:30:52.231Z,85.90
2023-02-19T00:33:23.291Z,85.70
2023-02-19T00:35:54.320Z,85.50
2023-02-19T00:38:25.260Z,85.60
2023-02-19T00:40:56.210Z,85.60
2023-02-19T00:43:27.251Z,85.40
2023-02-19T00:45:58.204Z,85.40
2023-02-19T00:48:29.203Z,85.30
2023-02-19T00:51:00.201Z,85.30
2023-02-19T00:53:31.176Z,84.80
2023-02-19T00:56:02.104Z,84.60
2023-02-19T00:58:33.092Z,84.00
2023-02-19T01:01:04.395Z,83.70
2023-02-19T01:03:35.914Z,83.30
2023-02-19T01:06:07.984Z,83.10
2023-02-19T01:08:39.300Z,83.00
2023-02-19T01:11:11.667Z,82.90
2023-02-19T01:13:43.480Z,82.70
2023-02-19T01:16:22.966Z,82.20
2023-02-19T01:18:54.023Z,82.00
2023-02-19T01:21:27.495Z,81.90
2023-02-19T01:23:59.173Z,81.50
2023-02-19T01:26:34.890Z,81.20
2023-02-19T01:29:12.139Z,81.20
2023-02-19T01:31:38.899Z,81.10
2023-02-19T01:34:11.034Z,81.10
2023-02-19T01:36:42.027Z,81.10
2023-02-19T01:39:13.866Z,81.30
2023-02-19T01:41:56.507Z,81.00
2023-02-19T01:45:13.275Z,80.70
2023-02-19T01:47:27.267Z,80.60
2023-02-19T01:49:59.875Z,79.90
2023-02-19T01:52:40.429Z,79.90
2023-02-19T01:55:14.047Z,79.70
2023-02-19T01:57:51.874Z,78.90
2023-02-19T02:00:24.334Z,78.30
2023-02-19T02:02:57.324Z,78.20
2023-02-19T02:05:48.529Z,78.40
2023-02-19T02:08:38.670Z,78.10
2023-02-19T02:11:21.015Z,77.70
2023-02-19T02:13:52.595Z,77.60
2023-02-19T02:16:34.811Z,77.40
2023-02-19T02:19:14.097Z,77.10
2023-02-19T02:21:53.336Z,77.00
2023-02-19T02:24:32.567Z,77.10
2023-02-19T02:27:32.987Z,77.20
2023-02-19T02:30:28.361Z,77.20
2023-02-19T02:33:25.818Z,76.90
2023-02-19T02:35:59.206Z,76.00
2023-02-19T02:38:32.360Z,75.80
2023-02-19T02:41:06.508Z,75.80
2023-02-19T02:43:36.695Z,75.80
2023-02-19T02:46:07.662Z,75.80
2023-02-19T02:48:43.784Z,76.00
2023-02-19T02:51:23.124Z,75.30
2023-02-19T02:54:19.785Z,76.30
2023-02-19T02:56:52.367Z,75.40
2023-02-19T02:59:25.978Z,75.40
2023-02-19T03:02:15.404Z,75.20
2023-02-19T03:05:12.293Z,74.60
2023-02-19T03:08:02.357Z,74.10
2023-02-19T03:10:38.658Z,74.30
2023-02-19T03:13:29.820Z,74.30
2023-02-19T03:16:04.934Z,74.40
2023-02-19T03:18:55.774Z,74.20
2023-02-19T03:21:29.174Z,73.50
2023-02-19T03:24:19.368Z,72.90
2023-02-19T03:26:53.861Z,73.10
2023-02-19T03:29:29.460Z,72.70
2023-02-19T03:32:12.685Z,72.30
2023-02-19T03:34:44.033Z,72.00
2023-02-19T03:37:27.890Z,71.80
2023-02-19T03:40:00.683Z,71.90
2023-02-19T03:42:46.931Z,71.60
2023-02-19T03:45:26.801Z,71.20
2023-02-19T03:48:09.263Z,70.90
2023-02-19T03:50:54.788Z,70.00
2023-02-19T03:53:28.165Z,69.90
2023-02-19T03:56:32.424Z,69.90
2023-02-19T03:59:17.956Z,69.60
2023-02-19T04:01:51.436Z,68.80
2023-02-19T04:04:36.165Z,68.60
2023-02-19T04:07:07.404Z,68.80
2023-02-19T04:09:40.987Z,68.50
2023-02-19T04:12:13.786Z,67.80
2023-02-19T04:14:47.101Z,66.80
2023-02-19T04:17:23.690Z,65.70
2023-02-19T04:19:57.292Z,65.50
2023-02-19T04:22:28.901Z,64.40
2023-02-19T04:25:00.169Z,63.40
2023-02-19T04:27:32.154Z,63.70
2023-02-19T04:30:08.830Z,63.10
2023-02-19T04:32:38.863Z,63.60
2023-02-19T04:35:10.228Z,63.30
2023-02-19T04:37:41.487Z,61.90
2023-02-19T04:40:13.615Z,61.60
2023-02-19T04:42:44.710Z,61.50
2023-02-19T04:45:16.297Z,61.30
2023-02-19T04:47:47.713Z,60.90
2023-02-19T04:50:23.833Z,60.70
2023-02-19T04:52:55.051Z,59.70
2023-02-19T04:55:26.628Z,59.30
2023-02-19T04:57:57.832Z,59.40
2023-02-19T05:00:33.604Z,59.30
2023-02-19T05:03:05.036Z,59.00
2023-02-19T05:05:39.660Z,57.60
2023-02-19T05:08:10.499Z,57.50
2023-02-19T05:10:41.832Z,57.60
2023-02-19T05:13:12.901Z,57.40
2023-02-19T05:15:45.346Z,57.40
2023-02-19T05:18:19.745Z,57.30
2023-02-19T05:20:52.860Z,57.50
2023-02-19T05:23:24.101Z,56.90
2023-02-19T05:25:55.532Z,56.40
2023-02-19T05:28:30.599Z,57.10
2023-02-19T05:31:09.042Z,57.30
2023-02-19T05:33:38.428Z,57.00
2023-02-19T05:36:13.273Z,57.60
2023-02-19T05:38:47.042Z,61.80
2023-02-19T05:41:20.422Z,62.10
2023-02-19T05:43:52.737Z,61.90
2023-02-19T05:46:26.698Z,62.20
2023-02-19T05:48:57.986Z,61.20
2023-02-19T05:51:30.121Z,63.80
2023-02-19T05:54:02.062Z,68.00
2023-02-19T05:56:42.442Z,66.00
2023-02-19T05:59:24.572Z,66.40
2023-02-19T06:02:03.606Z,57.00
2023-02-19T06:04:34.740Z,62.60
2023-02-19T06:07:09.780Z,69.70
2023-02-19T06:10:10.830Z,57.40
2023-02-19T06:12:21.685Z,57.20
2023-02-19T06:14:52.908Z,57.30
2023-02-19T06:17:24.759Z,56.90
2023-02-19T06:19:56.136Z,56.30
2023-02-19T06:22:34.565Z,56.10
2023-02-19T06:25:05.873Z,56.30
2023-02-19T06:27:38.619Z,55.90
2023-02-19T06:30:11.753Z,56.10
2023-02-19T06:32:42.805Z,56.00
2023-02-19T06:35:14.248Z,56.30
2023-02-19T06:37:45.184Z,56.30
2023-02-19T06:40:16.317Z,55.90
2023-02-19T06:42:48.986Z,56.20
2023-02-19T06:45:20.162Z,56.00
2023-02-19T06:47:55.450Z,56.70
2023-02-19T06:50:26.555Z,56.00
2023-02-19T06:52:57.514Z,55.60
2023-02-19T06:55:28.606Z,55.90
2023-02-19T06:57:59.813Z,55.50
2023-02-19T07:00:30.898Z,55.50
2023-02-19T07:03:03.875Z,55.80
2023-02-19T07:05:34.455Z,55.20
2023-02-19T07:08:05.826Z,54.80
2023-02-19T07:10:36.942Z,55.30
2023-02-19T07:13:08.191Z,55.00
2023-02-19T07:15:39.348Z,55.30
2023-02-19T07:18:11.715Z,55.40
2023-02-19T07:20:42.981Z,55.20
2023-02-19T07:23:14.466Z,54.90
2023-02-19T07:25:45.959Z,55.40
2023-02-19T07:28:17.503Z,55.30
2023-02-19T07:30:49.177Z,55.30
2023-02-19T07:33:20.530Z,55.00
2023-02-19T07:35:52.554Z,55.40
2023-02-19T07:38:24.921Z,54.80
2023-02-19T07:41:00.184Z,54.60
2023-02-19T07:43:33.313Z,54.90
2023-02-19T07:46:12.813Z,55.40
2023-02-19T07:48:46.084Z,55.10
2023-02-19T07:51:20.084Z,54.60
2023-02-19T07:54:12.190Z,54.30
2023-02-19T07:56:43.441Z,54.70
2023-02-19T07:59:15.546Z,55.10
2023-02-19T08:02:03.910Z,54.60
2023-02-19T08:04:34.986Z,54.90
2023-02-19T08:07:06.694Z,55.00
2023-02-19T08:09:37.822Z,54.70
2023-02-19T08:12:27.056Z,54.80
2023-02-19T08:14:59.259Z,55.10
2023-02-19T08:17:31.271Z,55.10
2023-02-19T08:20:02.426Z,55.50
2023-02-19T08:22:33.983Z,54.80
2023-02-19T08:25:11.348Z,55.00
2023-02-19T08:27:42.816Z,55.00
2023-02-19T08:30:14.866Z,54.90
2023-02-19T08:32:46.447Z,54.90
2023-02-19T08:35:17.812Z,55.80
2023-02-19T08:37:48.844Z,54.70
2023-02-19T08:40:20.309Z,54.60
2023-02-19T08:42:51.895Z,54.40
2023-02-19T08:45:24.677Z,54.70
2023-02-19T08:47:55.813Z,55.00
2023-02-19T08:50:33.458Z,54.40
2023-02-19T08:53:05.293Z,54.40
2023-02-19T08:55:36.615Z,54.80
2023-02-19T08:58:08.212Z,55.00
2023-02-19T09:00:39.722Z,54.00
2023-02-19T09:03:11.022Z,54.30
2023-02-19T09:05:42.940Z,54.20
2023-02-19T09:08:14.026Z,54.30
2023-02-19T09:10:45.428Z,54.60
2023-02-19T09:13:17.013Z,54.90
2023-02-19T09:15:48.245Z,55.30
2023-02-19T09:18:21.039Z,55.40
2023-02-19T09:20:52.316Z,55.70
2023-02-19T09:23:23.457Z,55.90
2023-02-19T09:26:02.328Z,55.80
2023-02-19T09:28:34.976Z,55.60
2023-02-19T09:31:10.245Z,55.70
2023-02-19T09:33:43.042Z,55.40
2023-02-19T09:36:16.242Z,55.90
2023-02-19T09:38:49.889Z,56.00
2023-02-19T09:41:32.015Z,56.00
2023-02-19T09:44:05.248Z,56.40
2023-02-19T09:46:50.682Z,56.20
2023-02-19T09:49:26.956Z,56.30
2023-02-19T09:52:12.560Z,56.50
2023-02-19T09:54:45.471Z,56.90
2023-02-19T09:57:26.624Z,57.20
2023-02-19T10:00:18.139Z,57.20
2023-02-19T10:02:49.286Z,57.30
2023-02-19T10:05:20.461Z,57.60
2023-02-19T10:07:54.062Z,57.60
2023-02-19T10:10:37.092Z,57.30
2023-02-19T10:13:25.737Z,57.20
2023-02-19T10:15:59.721Z,57.40
2023-02-19T10:18:33.862Z,57.50
2023-02-19T10:21:06.534Z,57.60
2023-02-19T10:23:40.116Z,58.00
2023-02-19T10:26:16.103Z,58.10
2023-02-19T10:28:47.121Z,58.30
2023-02-19T10:31:28.503Z,58.40
2023-02-19T10:34:02.713Z,58.60
2023-02-19T10:36:41.766Z,58.80
2023-02-19T10:39:29.980Z,59.10
2023-02-19T10:42:05.255Z,59.50
2023-02-19T10:44:38.142Z,59.50
2023-02-19T10:47:09.403Z,59.70
2023-02-19T10:49:44.883Z,60.60
2023-02-19T10:52:33.222Z,61.60
2023-02-19T10:55:24.398Z,62.30
2023-02-19T10:58:06.885Z,62.90
2023-02-19T11:00:32.928Z,63.60
2023-02-19T11:03:25.191Z,63.80
2023-02-19T11:06:07.321Z,65.60
2023-02-19T11:08:49.210Z,65.20
2023-02-19T11:11:32.374Z,65.00
2023-02-19T11:14:06.364Z,65.80
2023-02-19T11:16:45.629Z,66.00
2023-02-19T11:19:34.161Z,65.60
2023-02-19T11:22:05.589Z,65.20
2023-02-19T11:24:44.459Z,65.10
2023-02-19T11:27:24.207Z,64.60
2023-02-19T11:29:55.186Z,64.20
2023-02-19T11:32:28.433Z,64.00
2023-02-19T11:35:23.716Z,63.90
2023-02-19T11:38:01.205Z,64.30
2023-02-19T11:40:36.975Z,65.00
2023-02-19T11:43:32.565Z,65.80
2023-02-19T11:46:17.937Z,65.50
2023-02-19T11:48:59.617Z,64.80
2023-02-19T11:51:52.735Z,64.40
2023-02-19T11:54:47.152Z,64.40
2023-02-19T11:57:26.792Z,64.10
2023-02-19T12:00:07.563Z,63.90
2023-02-19T12:02:45.050Z,63.90
2023-02-19T12:05:30.853Z,64.00
2023-02-19T12:08:04.171Z,63.80
2023-02-19T12:10:55.896Z,63.80
2023-02-19T12:13:32.368Z,63.80
2023-02-19T12:16:26.987Z,63.80
2023-02-19T12:19:23.077Z,63.80
2023-02-19T12:22:06.522Z,63.90
2023-02-19T12:25:05.741Z,64.00
2023-02-19T12:27:58.017Z,64.30
2023-02-19T12:30:34.273Z,64.00
2023-02-19T12:33:26.795Z,64.10
2023-02-19T12:36:18.448Z,64.00
2023-02-19T12:39:11.599Z,64.10
2023-02-19T12:41:44.853Z,64.20
2023-02-19T12:44:21.020Z,64.20
2023-02-19T12:46:57.074Z,64.30
2023-02-19T12:49:36.170Z,64.40
2023-02-19T12:52:15.070Z,64.40
2023-02-19T12:54:48.565Z,64.40
2023-02-19T12:57:22.028Z,64.40
2023-02-19T12:59:58.210Z,64.60
2023-02-19T13:02:52.781Z,64.60
2023-02-19T13:05:44.314Z,64.60
2023-02-19T13:08:19.974Z,64.80
2023-02-19T13:10:56.301Z,65.00
2023-02-19T13:13:32.251Z,65.10
2023-02-19T13:16:18.190Z,65.10
2023-02-19T13:18:55.794Z,65.30
2023-02-19T13:21:45.995Z,65.20
2023-02-19T13:24:38.412Z,65.40
2023-02-19T13:27:18.552Z,67.60
2023-02-19T13:30:13.144Z,69.10
2023-02-19T13:32:55.872Z,69.50
2023-02-19T13:36:10.046Z,65.20
2023-02-19T13:38:28.837Z,65.30
2023-02-19T13:41:02.286Z,65.10
2023-02-19T13:43:43.996Z,64.20
2023-02-19T13:46:19.007Z,65.60
2023-02-19T13:48:50.064Z,65.40
2023-02-19T13:51:23.462Z,65.40
2023-02-19T13:54:02.061Z,65.20
2023-02-19T13:56:38.774Z,66.10
2023-02-19T13:59:27.999Z,65.40
2023-02-19T14:02:01.750Z,65.40
2023-02-19T14:04:44.089Z,72.80
2023-02-19T14:07:17.429Z,96.10
2023-02-19T14:09:51.905Z,88.80
2023-02-19T14:12:27.096Z,72.10
2023-02-19T14:15:05.164Z,77.70
2023-02-19T14:17:41.321Z,64.70
2023-02-19T14:20:38.804Z,65.70
2023-02-19T14:23:17.913Z,65.70
2023-02-19T14:25:56.138Z,65.80
2023-02-19T14:28:35.835Z,65.80
2023-02-19T14:31:11.961Z,65.90
2023-02-19T14:33:51.375Z,65.90
2023-02-19T14:36:51.391Z,66.00
2023-02-19T14:39:30.564Z,66.80
2023-02-19T14:42:04.813Z,66.30
2023-02-19T14:45:04.446Z,66.50
2023-02-19T14:47:36.567Z,66.50
2023-02-19T14:50:12.521Z,66.60
2023-02-19T14:52:48.833Z,66.60
2023-02-19T14:55:31.197Z,66.60
2023-02-19T14:58:11.562Z,66.90
2023-02-19T15:00:44.750Z,67.00
2023-02-19T15:03:33.241Z,67.20
2023-02-19T15:06:13.605Z,66.90
2023-02-19T15:08:52.837Z,66.50
2023-02-19T15:11:28.392Z,66.40
2023-02-19T15:14:05.537Z,66.40
2023-02-19T15:16:39.771Z,66.40
2023-02-19T15:19:12.078Z,66.50
2023-02-19T15:21:49.611Z,66.10
2023-02-19T15:24:23.560Z,66.20
2023-02-19T15:26:56.431Z,65.80
2023-02-19T15:29:32.597Z,65.90
2023-02-19T15:32:08.220Z,65.90
2023-02-19T15:34:39.326Z,66.00
2023-02-19T15:37:12.639Z,66.00
2023-02-19T15:39:59.426Z,66.00
2023-02-19T15:42:32.846Z,66.00
2023-02-19T15:45:13.426Z,66.00
2023-02-19T15:47:58.560Z,66.00
2023-02-19T15:50:35.169Z,66.10
2023-02-19T15:53:14.191Z,66.20
2023-02-19T15:55:50.385Z,66.20
2023-02-19T15:58:46.567Z,66.30
2023-02-19T16:01:42.459Z,66.50
2023-02-19T16:04:15.655Z,66.50
2023-02-19T16:07:00.984Z,66.60
2023-02-19T16:09:34.414Z,66.60
2023-02-19T16:12:07.399Z,66.90
2023-02-19T16:14:39.699Z,66.80
2023-02-19T16:17:15.549Z,67.00
2023-02-19T16:20:03.579Z,67.20
2023-02-19T16:26:52.126Z,67.60
2023-02-19T16:29:28.796Z,67.70
2023-02-19T16:32:07.920Z,67.80
2023-02-19T16:34:53.312Z,68.90
2023-02-19T16:37:45.483Z,68.10
2023-02-19T16:40:38.271Z,68.10
2023-02-19T16:43:19.717Z,68.30
2023-02-19T16:46:20.600Z,68.30
2023-02-19T16:48:54.909Z,68.50
2023-02-19T16:51:34.056Z,68.60
2023-02-19T16:54:11.610Z,68.60
2023-02-19T16:56:46.084Z,68.80
2023-02-19T16:59:16.967Z,68.90
2023-02-19T17:01:47.914Z,69.10
2023-02-19T17:04:18.934Z,69.20
2023-02-19T17:06:50.406Z,69.50
2023-02-19T17:09:21.312Z,69.50
2023-02-19T17:11:52.710Z,69.60
2023-02-19T17:14:23.785Z,69.60
2023-02-19T17:16:54.534Z,69.90
2023-02-19T17:19:25.233Z,69.70
2023-02-19T17:21:56.063Z,70.00
2023-02-19T17:24:26.980Z,70.00
2023-02-19T17:26:57.800Z,70.20
2023-02-19T17:29:29.679Z,70.20
2023-02-19T17:32:00.448Z,70.30
2023-02-19T17:34:31.178Z,70.30
2023-02-19T17:37:02.070Z,70.50
2023-02-19T17:39:32.801Z,70.50
2023-02-19T17:42:03.538Z,70.70
2023-02-19T17:44:34.574Z,70.80
2023-02-19T17:47:05.553Z,70.90
2023-02-19T17:49:37.580Z,72.10
2023-02-19T17:52:11.535Z,71.10
2023-02-19T17:54:41.157Z,71.20
2023-02-19T17:57:11.956Z,71.50
2023-02-19T17:59:42.672Z,71.60
2023-02-19T18:02:13.503Z,71.70
2023-02-19T18:04:44.375Z,71.80
2023-02-19T18:07:18.155Z,71.80
2023-02-19T18:09:51.928Z,72.00
2023-02-19T18:12:22.747Z,72.10
2023-02-19T18:14:55.462Z,72.40
2023-02-19T18:17:27.366Z,72.40
2023-02-19T18:19:58.952Z,72.40
2023-02-19T18:22:29.756Z,72.50
2023-02-19T18:25:01.746Z,72.30
2023-02-19T18:27:32.560Z,72.60
2023-02-19T18:30:03.998Z,72.70
2023-02-19T18:32:34.868Z,72.70
2023-02-19T18:35:09.231Z,72.50
2023-02-19T18:37:40.156Z,72.70
2023-02-19T18:40:13.385Z,72.60
2023-02-19T18:42:44.406Z,72.70
2023-02-19T18:45:15.449Z,72.60
2023-02-19T18:47:50.576Z,72.50
2023-02-19T18:50:23.011Z,72.50
2023-02-19T18:52:53.723Z,72.60
2023-02-19T18:55:24.538Z,72.70
2023-02-19T18:57:55.261Z,72.70
2023-02-19T19:00:27.842Z,72.70
2023-02-19T19:03:00.552Z,73.10
2023-02-19T19:05:33.008Z,72.70
2023-02-19T19:08:03.799Z,72.60
2023-02-19T19:10:34.526Z,72.90
2023-02-19T19:13:05.445Z,72.80
2023-02-19T19:15:36.535Z,72.80
2023-02-19T19:18:07.969Z,72.60
2023-02-19T19:20:38.648Z,72.70
2023-02-19T19:23:09.419Z,72.60
2023-02-19T19:25:40.748Z,73.00
2023-02-19T19:28:11.539Z,72.90
2023-02-19T19:30:43.668Z,73.00
2023-02-19T19:33:14.716Z,73.20
2023-02-19T19:35:45.516Z,73.40
2023-02-19T19:38:16.340Z,73.40
2023-02-19T19:40:47.236Z,73.70
2023-02-19T19:43:18.246Z,73.90
2023-02-19T19:45:49.054Z,74.00
2023-02-19T19:48:19.866Z,74.00
2023-02-19T19:50:50.898Z,73.90
2023-02-19T19:53:22.127Z,74.10
2023-02-19T19:55:52.990Z,74.30
2023-02-19T19:58:25.206Z,74.10
2023-02-19T20:00:56.224Z,74.40
2023-02-19T20:03:27.152Z,74.50
2023-02-19T20:05:58.495Z,74.70
2023-02-19T20:08:29.290Z,74.80
2023-02-19T20:11:00.116Z,75.00
2023-02-19T20:13:31.604Z,74.90
2023-02-19T20:16:02.501Z,75.00
2023-02-19T20:18:33.240Z,75.30
2023-02-19T20:21:04.711Z,75.40
2023-02-19T20:23:35.503Z,75.30
2023-02-19T20:26:06.526Z,75.40
2023-02-19T20:28:37.325Z,75.50
2023-02-19T20:31:12.253Z,75.70
2023-02-19T20:33:43.346Z,75.50
2023-02-19T20:36:14.151Z,75.70
2023-02-19T20:38:45.038Z,75.60
2023-02-19T20:41:16.043Z,75.80
2023-02-19T20:43:46.855Z,75.80
2023-02-19T20:46:17.569Z,75.90
2023-02-19T20:48:49.900Z,76.00
2023-02-19T20:51:20.672Z,76.20
2023-02-19T20:53:51.535Z,76.40
2023-02-19T20:56:22.546Z,76.50
2023-02-19T20:58:54.059Z,76.60
2023-02-19T21:01:29.299Z,76.50
2023-02-19T21:04:00.477Z,76.80
2023-02-19T21:06:31.393Z,76.90
2023-02-19T21:09:02.374Z,77.20
2023-02-19T21:11:33.316Z,77.30
2023-02-19T21:14:04.219Z,77.20
2023-02-19T21:16:35.427Z,77.20
2023-02-19T21:19:06.338Z,77.10
2023-02-19T21:21:37.034Z,77.10
2023-02-19T21:24:08.415Z,77.20
2023-02-19T21:26:40.995Z,77.20
2023-02-19T21:31:30.021Z,77.10
2023-02-19T21:31:57.073Z,77.10
2023-02-19T21:34:30.247Z,77.20
2023-02-19T21:37:01.024Z,77.30
2023-02-19T21:39:33.460Z,77.30
2023-02-19T21:42:05.016Z,77.60
2023-02-19T21:44:36.017Z,77.80
2023-02-19T21:47:06.930Z,77.90
2023-02-19T21:49:37.735Z,78.00
2023-02-19T21:52:08.575Z,77.90
2023-02-19T21:54:39.505Z,78.00
2023-02-19T21:57:10.533Z,78.00
2023-02-19T21:59:41.430Z,77.90
2023-02-19T22:02:12.658Z,77.90
2023-02-19T22:04:43.341Z,78.00
2023-02-19T22:07:14.058Z,78.00
2023-02-19T22:09:44.899Z,78.10
2023-02-19T22:12:15.716Z,78.10
2023-02-19T22:14:46.517Z,78.20
2023-02-19T22:17:17.427Z,78.20
2023-02-19T22:19:48.340Z,78.20
2023-02-19T22:22:19.263Z,78.30
2023-02-19T22:24:50.084Z,78.20
2023-02-19T22:27:20.769Z,78.40
2023-02-19T22:29:51.669Z,78.50
2023-02-19T22:32:22.607Z,78.80
2023-02-19T22:34:53.448Z,78.80
2023-02-19T22:37:24.242Z,78.70
2023-02-19T22:39:55.034Z,78.90
2023-02-19T22:42:26.549Z,78.90
2023-02-19T22:45:01.383Z,78.90
2023-02-19T22:47:32.323Z,79.30
2023-02-19T22:50:03.317Z,79.30
2023-02-19T22:52:34.021Z,79.40
2023-02-19T22:55:04.912Z,79.60
2023-02-19T22:57:36.880Z,79.50
2023-02-19T23:00:09.452Z,79.50
2023-02-19T23:02:40.305Z,79.60
2023-02-19T23:05:11.881Z,79.30
2023-02-19T23:07:47.050Z,79.40
2023-02-19T23:10:18.164Z,79.30
2023-02-19T23:12:49.149Z,79.50
2023-02-19T23:15:20.153Z,79.50
2023-02-19T23:17:50.854Z,79.50
2023-02-19T23:20:21.781Z,79.70
2023-02-19T23:22:52.578Z,79.70
2023-02-19T23:25:23.455Z,79.70
2023-02-19T23:27:54.271Z,79.80
2023-02-19T23:30:25.421Z,79.80
2023-02-19T23:32:56.227Z,79.90
2023-02-19T23:35:27.032Z,79.70
2023-02-19T23:37:57.775Z,79.70
2023-02-19T23:40:28.474Z,79.70
2023-02-19T23:42:59.292Z,79.80
2023-02-19T23:45:31.043Z,79.80
2023-02-19T23:48:01.930Z,80.00
2023-02-19T23:50:32.636Z,80.00
2023-02-19T23:53:03.843Z,81.00
2023-02-19T23:55:34.624Z,80.40
2023-02-19T23:58:05.958Z,80.60
